Nacogdoches, TX (75965)

5:21 PM CST on December 06, 2016 (GMT -0600)
| | Change Station

Elev -9999 ft 0.00 °N, 0.00 °E | Updated

Cloudy
Cloudy
48 °F
Feels Like 48 °F
N
1
Wind Variable Wind from North
Gusts mph

Today
High -- | Low -- °F
--% Chance of Precip.
Yesterday
High -- | Low -- °F
Precip. -- in
Pressure 29.99 in
Visibility 2.5 miles
Clouds Scattered Clouds 400 ft
Mostly Cloudy 1100 ft
Overcast 1900 ft
Dew Point 48 °F
Humidity 100%
Rainfall --
Snow Depth Not available.
7:04 AM 5:14 PM
Waxing Crescent, 46% visible
METAR KOCH 062315Z 01004KT 2 1/2SM SCT004 BKN011 OVC019 10/09 A2999 RMK AO1
Pressure 29.99 in
Visibility 2.5 miles
Clouds Scattered Clouds 400 ft
Mostly Cloudy 1100 ft
Overcast 1900 ft
Dew Point 48 °F
Humidity 100%
Rainfall --
Snow Depth Not available.
7:04 AM 5:14 PM
Waxing Crescent, 46% visible
METAR KOCH 062315Z 01004KT 2 1/2SM SCT004 BKN011 OVC019 10/09 A2999 RMK AO1

10-Day Weather Forecast

Almanac

Astronomy

Dec. 06, 2016 Rise Set
Actual Time
Civil Twilight
Nautical Twilight
Astronomical Twilight
Moon
Length of Visible Light
Length of Day
Tomorrow will be .
, % of the Moon is Illuminated

Today's Extremes

State Highs State Lows

Community

WunderPhotos

Upload Photos

1,956,044 photos uploaded!

WunderBlog® & News

Nearby

Air Quality

  Air Quality AQ Index Pollutant
Not available.

Snow Depth

Station Depth Elevation

Earthquake Activity

City Distance Mag. Time & Date
Minimum magnitude displayed is 2.5.

Coastal Water Temperatures

Place Temperature

Stations

Nearby Weather Stations

Station Location Temp. Windchill Dew Point Humidity Wind Precip. Elev Updated Type
                   

Watches & Warnings

There are currently no watches in effect.